Weather at Talcha Rara Mugu Airport

Public forecast

Using degrees Celsius for public forecast. Weather courtesy of forecast.io.

Closest aviation weather report (METAR) to Talcha Rara Mugu Airport

Report is more than 6 hours old.

Closest report is Pantnagar Airport, 143.0 nm (264.9 km) W.

2024/05/18 11:00 (retrieved 13 hours ago)

VIPT 181100Z 27005KT 5000 HZ NSC 39/18 Q0999

Closest aviation forecast (TAF) to Talcha Rara Mugu Airport

Forecast is more than 6 hours old.

Closest forecast is Pantnagar Airport, 143.0 nm (264.9 km) W.

2024/05/18 12:00 (retrieved 12 hours ago)

TAF VIPT 181100Z 1812/1918 25006KT 5000 HZ NSC BECMG 1818/1820 16004KT 4000 HZ FEW030 SCT100 BECMG 1900/1902 11004KT 3000 HZ BECMG 1904/1906 12006KT 4000 HZ BECMG 1908/1910 15008G18KT 5000 HZ FEW030 SCT100 BECMG 1915/1917 25006KT 4000 HZ FEW100